Time;durP1;ratioP1;P1;durP2;ratioP2;P2;SDS_P1;SDS_P2;PMS_P1;PMS_P2;Temp;Humidity;BMP_temperature;BMP_pressure;BME280_temperature;BME280_humidity;BME280_pressure;Samples;Min_cycle;Max_cycle;Signal;HPM_P1;HPM_P2
2023/07/24 00:01:51;;;;;;;9.57;5.07;;;;;;;17.98;100.00;100240.91;5092439;28;20061;-49
2023/07/24 00:04:16;;;;;;;5.93;5.32;;;;;;;17.99;100.00;100256.78;5111924;28;20118;-51
2023/07/24 00:06:42;;;;;;;4.78;4.38;;;;;;;17.84;100.00;100241.06;5104187;28;20465;-48
2023/07/24 00:09:07;;;;;;;8.68;5.18;;;;;;;17.79;100.00;100233.41;5106899;28;20582;-52
2023/07/24 00:11:32;;;;;;;4.93;4.35;;;;;;;17.88;100.00;100239.88;5093101;28;20036;-50
2023/07/24 00:13:57;;;;;;;5.95;5.10;;;;;;;17.50;100.00;100162.75;5092060;28;20403;-49
2023/07/24 00:16:23;;;;;;;5.45;4.90;;;;;;;17.56;100.00;100167.66;5093377;28;20482;-48
2023/07/24 00:18:48;;;;;;;5.97;4.68;;;;;;;18.01;100.00;100237.19;5074389;28;20411;-51
2023/07/24 00:21:13;;;;;;;4.82;4.38;;;;;;;17.63;100.00;100160.94;5078547;28;20112;-54
2023/07/24 00:23:39;;;;;;;6.85;4.53;;;;;;;18.03;100.00;100224.63;5098384;28;20165;-52
2023/07/24 00:26:04;;;;;;;5.13;4.63;;;;;;;17.93;100.00;100225.28;5091017;28;20110;-49
2023/07/24 00:28:29;;;;;;;5.45;4.38;;;;;;;18.05;100.00;100231.53;5097860;28;20050;-48
2023/07/24 00:30:56;;;;;;;6.40;5.22;;;;;;;17.60;100.00;100147.84;5116344;28;20444;-47
2023/07/24 00:33:21;;;;;;;6.13;4.80;;;;;;;17.90;100.00;100200.69;5097987;28;20031;-50
2023/07/24 00:35:47;;;;;;;5.53;4.60;;;;;;;17.92;100.00;100220.09;5096222;28;20127;-52
2023/07/24 00:38:12;;;;;;;7.07;5.00;;;;;;;17.78;100.00;100191.78;5097760;28;20051;-54
2023/07/24 00:40:37;;;;;;;6.15;4.55;;;;;;;17.82;100.00;100198.59;5109010;28;20039;-48
2023/07/24 00:43:03;;;;;;;5.57;4.78;;;;;;;17.55;100.00;100150.00;5115239;28;20491;-48
2023/07/24 00:45:28;;;;;;;7.38;5.40;;;;;;;17.55;100.00;100147.34;5115994;28;20040;-51
2023/07/24 00:47:54;;;;;;;5.30;4.80;;;;;;;17.50;100.00;100130.81;5115941;28;20425;-48
2023/07/24 00:50:19;;;;;;;5.15;4.60;;;;;;;17.97;100.00;100199.28;5113992;28;20061;-50
2023/07/24 00:52:44;;;;;;;6.47;4.93;;;;;;;17.55;100.00;100130.50;5115980;28;20043;-53
2023/07/24 00:55:11;;;;;;;4.88;4.47;;;;;;;17.50;100.00;100129.97;5097353;28;20031;-47
2023/07/24 00:57:36;;;;;;;5.70;5.20;;;;;;;17.49;100.00;100128.25;5095104;28;20541;-52
2023/07/24 01:00:03;;;;;;;6.25;5.05;;;;;;;17.86;100.00;100200.03;5095142;28;20056;-50
2023/07/24 01:02:30;;;;;;;6.72;5.97;;;;;;;17.82;100.00;100197.72;5093698;28;20047;-50
2023/07/24 01:04:55;;;;;;;8.77;6.82;;;;;;;17.32;100.00;100119.69;5095321;28;20036;-49
2023/07/24 01:07:20;;;;;;;7.45;6.20;;;;;;;17.39;100.00;100147.56;5104326;28;20055;-54
2023/07/24 01:09:47;;;;;;;6.70;6.07;;;;;;;17.35;100.00;100137.22;5085480;28;20031;-52
2023/07/24 01:12:21;;;;;;;6.65;6.05;;;;;;;17.69;100.00;100207.53;5101523;28;20040;-49
2023/07/24 01:15:09;;;;;;;7.32;6.43;;;;;;;17.24;100.00;100132.69;5094632;28;20028;-48
2023/07/24 01:17:39;;;;;;;6.72;6.03;;;;;;;17.58;100.00;100188.84;5094412;28;20056;-51
2023/07/24 01:20:09;;;;;;;6.93;6.20;;;;;;;17.62;100.00;100199.16;5098217;28;20024;-52
2023/07/24 01:22:54;;;;;;;9.15;7.28;;;;;;;17.62;100.00;100195.66;5107723;28;20074;-49
2023/07/24 01:25:35;;;;;;;6.97;5.72;;;;;;;17.64;100.00;100196.38;5075708;28;20352;-50
2023/07/24 01:28:01;;;;;;;8.20;6.45;;;;;;;17.62;100.00;100193.84;5085497;28;20040;-51
2023/07/24 01:30:26;;;;;;;9.15;6.13;;;;;;;17.43;100.00;100153.50;5083437;28;20084;-51
2023/07/24 01:32:51;;;;;;;6.82;6.07;;;;;;;17.55;100.00;100183.72;5115003;28;20028;-51
2023/07/24 01:35:17;;;;;;;9.35;6.63;;;;;;;17.58;100.00;100183.50;5113190;28;20216;-49
2023/07/24 01:37:43;;;;;;;7.65;6.57;;;;;;;17.52;100.00;100167.94;5105777;28;20071;-50
2023/07/24 01:40:10;;;;;;;7.40;6.43;;;;;;;17.60;100.00;100195.75;5084757;28;20040;-50
2023/07/24 01:42:35;;;;;;;6.93;6.00;;;;;;;17.11;100.00;100107.06;5112996;28;20104;-51
2023/07/24 01:45:02;;;;;;;9.52;5.95;;;;;;;17.55;100.00;100186.38;5094399;28;20061;-50
2023/07/24 01:47:28;;;;;;;8.98;6.15;;;;;;;17.22;100.00;100131.09;5101567;28;20032;-51
2023/07/24 01:49:53;;;;;;;9.68;6.72;;;;;;;17.41;100.00;100168.72;5093880;28;20495;-53
2023/07/24 01:52:19;;;;;;;10.93;6.35;;;;;;;17.53;100.00;100172.31;5094354;28;20407;-50
2023/07/24 01:54:44;;;;;;;8.80;5.72;;;;;;;17.18;100.00;100116.31;5103330;28;20471;-51
2023/07/24 01:57:09;;;;;;;9.00;5.65;;;;;;;17.57;100.00;100187.16;5104428;28;20060;-51
2023/07/24 01:59:35;;;;;;;8.07;5.53;;;;;;;16.96;100.00;100082.38;5108039;28;20096;-53
2023/07/24 02:02:00;;;;;;;10.48;6.25;;;;;;;17.54;100.00;100182.88;5084075;28;20085;-49
2023/07/24 02:04:25;;;;;;;8.20;5.60;;;;;;;17.55;100.00;100183.72;5095149;28;20047;-47
2023/07/24 02:06:51;;;;;;;8.95;5.60;;;;;;;17.53;100.00;100174.97;5096717;28;20376;-52
2023/07/24 02:09:19;;;;;;;7.70;6.15;;;;;;;17.50;100.00;100170.72;5093135;28;20131;-52
2023/07/24 02:11:44;;;;;;;7.53;6.00;;;;;;;17.32;100.00;100129.47;5109783;28;20480;-47
2023/07/24 02:14:12;;;;;;;7.60;5.68;;;;;;;17.50;100.00;100154.78;5113265;28;20122;-52
2023/07/24 02:16:37;;;;;;;6.80;5.30;;;;;;;17.38;100.00;100134.34;5097658;28;20426;-49
2023/07/24 02:19:02;;;;;;;8.70;5.28;;;;;;;17.04;100.00;100085.38;5075547;28;20180;-51
2023/07/24 02:21:28;;;;;;;9.30;4.90;;;;;;;17.16;100.00;100096.97;5106818;28;20044;-49
2023/07/24 02:23:53;;;;;;;9.93;5.45;;;;;;;17.48;100.00;100148.72;5106194;28;20036;-52
2023/07/24 02:26:18;;;;;;;8.85;5.25;;;;;;;17.48;100.00;100150.53;5107944;28;20036;-53
2023/07/24 02:28:44;;;;;;;7.88;5.70;;;;;;;17.52;100.00;100160.81;5094028;28;20027;-51
2023/07/24 02:31:09;;;;;;;9.98;5.10;;;;;;;17.11;100.00;100089.28;5111530;28;20118;-49
2023/07/24 02:33:34;;;;;;;9.32;5.40;;;;;;;17.45;100.00;100128.47;5106146;28;20180;-47
2023/07/24 02:36:00;;;;;;;10.25;5.22;;;;;;;17.56;100.00;100141.06;5103380;28;20130;-46
2023/07/24 02:38:26;;;;;;;9.70;5.55;;;;;;;17.62;100.00;100148.59;5080851;28;20035;-48
2023/07/24 02:40:51;;;;;;;10.15;5.45;;;;;;;17.18;100.00;100077.28;5104118;28;20034;-50
2023/07/24 02:43:16;;;;;;;9.82;5.30;;;;;;;17.23;100.00;100083.09;5092764;28;20123;-48
2023/07/24 02:45:42;;;;;;;6.65;4.80;;;;;;;17.55;100.00;100138.50;5097639;28;20371;-49
2023/07/24 02:48:07;;;;;;;7.82;5.22;;;;;;;17.19;100.00;100070.97;5085216;28;20028;-49
2023/07/24 02:50:33;;;;;;;11.18;5.75;;;;;;;17.52;100.00;100128.88;5105429;28;20039;-49
2023/07/24 02:52:58;;;;;;;8.30;4.60;;;;;;;17.31;100.00;100087.84;5112415;28;20043;-51
2023/07/24 02:55:23;;;;;;;8.35;5.63;;;;;;;17.49;100.00;100112.28;5087634;28;20039;-47
2023/07/24 02:57:49;;;;;;;9.45;4.85;;;;;;;17.56;100.00;100127.75;5095927;28;20056;-50
2023/07/24 03:00:14;;;;;;;10.20;5.35;;;;;;;17.15;100.00;100053.56;5099241;28;20313;-48
2023/07/24 03:02:40;;;;;;;15.23;6.05;;;;;;;17.54;100.00;100108.38;5113158;28;20074;-48
2023/07/24 03:05:05;;;;;;;8.95;5.45;;;;;;;17.51;100.00;100129.00;5109156;28;20055;-50
2023/07/24 03:07:31;;;;;;;9.55;5.63;;;;;;;17.50;100.00;100149.44;5098470;28;20088;-47
2023/07/24 03:09:57;;;;;;;9.75;4.90;;;;;;;17.40;100.00;100125.31;5101195;28;20070;-48
2023/07/24 03:12:22;;;;;;;9.00;5.03;;;;;;;17.50;100.00;100121.97;5092067;28;20439;-47
2023/07/24 03:14:47;;;;;;;7.90;4.93;;;;;;;17.45;100.00;100104.53;5095727;28;20493;-50
2023/07/24 03:17:13;;;;;;;8.05;5.70;;;;;;;17.38;100.00;100105.94;5112932;28;20494;-48
2023/07/24 03:19:40;;;;;;;6.50;5.13;;;;;;;17.09;100.00;100054.00;5073984;28;20101;-49
2023/07/24 03:22:06;;;;;;;7.63;5.00;;;;;;;17.62;100.00;100131.78;5076189;28;20031;-50
2023/07/24 03:24:31;;;;;;;12.93;5.68;;;;;;;17.65;100.00;100135.06;5095231;28;20092;-48
2023/07/24 03:26:56;;;;;;;11.52;4.68;;;;;;;17.65;100.00;100132.41;5105700;28;20474;-48
2023/07/24 03:29:22;;;;;;;11.98;5.00;;;;;;;17.68;100.00;100128.69;5093384;28;20585;-51
2023/07/24 03:31:47;;;;;;;8.15;4.97;;;;;;;17.37;100.00;100072.31;5084386;28;20024;-48
2023/07/24 03:34:12;;;;;;;11.15;5.05;;;;;;;17.56;100.00;100109.13;5092310;28;20035;-51
2023/07/24 03:36:41;;;;;;;10.85;5.53;;;;;;;17.71;100.00;100126.66;5106213;28;20538;-49
2023/07/24 03:39:06;;;;;;;10.63;5.82;;;;;;;17.63;100.00;100128.16;5112650;28;20036;-49
2023/07/24 03:41:32;;;;;;;12.23;5.72;;;;;;;17.53;100.00;100108.47;5073754;28;20554;-49
2023/07/24 03:43:57;;;;;;;12.05;5.97;;;;;;;17.57;100.00;100120.63;5073970;28;20038;-50
2023/07/24 03:46:22;;;;;;;14.20;6.03;;;;;;;17.60;100.00;100139.84;5100366;28;20130;-51
2023/07/24 03:48:49;;;;;;;9.50;5.60;;;;;;;17.58;100.00;100123.16;5092219;28;20115;-49
2023/07/24 03:51:15;;;;;;;12.60;6.03;;;;;;;17.14;100.00;100043.00;5095308;28;20471;-53
2023/07/24 03:53:40;;;;;;;9.70;5.30;;;;;;;17.33;100.00;100072.66;5102037;28;20043;-49
2023/07/24 03:56:05;;;;;;;8.30;5.75;;;;;;;17.41;100.00;100104.88;5097233;28;20545;-47
2023/07/24 03:58:31;;;;;;;9.48;5.22;;;;;;;17.40;100.00;100111.16;5091741;28;20052;-52
2023/07/24 04:00:56;;;;;;;13.70;6.25;;;;;;;17.41;100.00;100123.50;5104533;28;20043;-49
2023/07/24 04:03:21;;;;;;;11.15;6.68;;;;;;;17.43;100.00;100126.88;5103315;28;20047;-50
2023/07/24 04:05:47;;;;;;;10.75;5.93;;;;;;;17.03;100.00;100046.44;5075241;28;20043;-49
2023/07/24 04:08:12;;;;;;;9.57;5.57;;;;;;;17.44;100.00;100109.97;5106582;28;20040;-52
2023/07/24 04:10:37;;;;;;;10.98;5.78;;;;;;;17.54;100.00;100119.00;5110935;28;20484;-48
2023/07/24 04:13:03;;;;;;;14.68;6.07;;;;;;;17.48;100.00;100092.84;5104093;28;20043;-52
2023/07/24 04:15:28;;;;;;;11.60;5.72;;;;;;;17.25;100.00;100049.25;5090339;28;20483;-49
2023/07/24 04:17:53;;;;;;;11.38;5.78;;;;;;;17.33;100.00;100062.03;5091235;28;20043;-48
2023/07/24 04:20:19;;;;;;;9.38;5.57;;;;;;;17.66;100.00;100133.28;5107281;28;20028;-48
2023/07/24 04:22:44;;;;;;;12.75;5.38;;;;;;;17.58;100.00;100096.56;5075388;28;20120;-51
2023/07/24 04:25:09;;;;;;;11.27;5.22;;;;;;;17.68;100.00;100126.00;5096676;28;20482;-49
2023/07/24 04:27:35;;;;;;;10.52;5.25;;;;;;;16.91;100.00;99986.19;5104408;28;20032;-50
2023/07/24 04:30:00;;;;;;;14.40;6.00;;;;;;;17.58;100.00;100098.34;5092959;28;20047;-49
2023/07/24 04:32:28;;;;;;;12.30;5.57;;;;;;;17.39;100.00;100069.56;5092083;28;20042;-53
2023/07/24 04:34:54;;;;;;;13.98;5.95;;;;;;;17.62;100.00;100114.00;5099048;28;20043;-51
2023/07/24 04:37:19;;;;;;;11.55;5.60;;;;;;;17.62;100.00;100122.00;5111667;28;20046;-52
2023/07/24 04:39:44;;;;;;;11.95;6.20;;;;;;;17.52;100.00;100114.72;5096503;28;20035;-52
2023/07/24 04:42:10;;;;;;;11.93;6.03;;;;;;;17.00;100.00;100032.53;5097567;28;20039;-54
2023/07/24 04:44:35;;;;;;;12.10;5.53;;;;;;;17.37;100.00;100114.88;5100271;28;20048;-48
2023/07/24 04:47:02;;;;;;;11.88;6.03;;;;;;;17.43;100.00;100124.22;5110226;28;20043;-50
2023/07/24 04:49:30;;;;;;;13.38;6.22;;;;;;;17.38;100.00;100126.38;5110918;28;20039;-48
2023/07/24 04:51:56;;;;;;;13.38;6.18;;;;;;;16.91;100.00;100052.63;5112014;28;20490;-49
2023/07/24 04:54:21;;;;;;;11.05;5.55;;;;;;;17.37;100.00;100119.34;5097254;28;20040;-54
2023/07/24 04:56:47;;;;;;;10.10;5.78;;;;;;;17.01;100.00;100042.22;5102853;28;20152;-48
2023/07/24 04:59:12;;;;;;;12.75;5.78;;;;;;;17.58;100.00;100114.31;5092479;28;20252;-47
2023/07/24 05:01:37;;;;;;;8.55;5.80;;;;;;;17.25;100.00;100046.59;5103101;28;20480;-53
2023/07/24 05:04:03;;;;;;;11.75;5.47;;;;;;;17.48;100.00;100098.16;5080380;28;20029;-52
2023/07/24 05:06:28;;;;;;;12.60;5.47;;;;;;;17.76;100.00;100120.97;5115194;28;20073;-52
2023/07/24 05:08:54;;;;;;;13.55;5.95;;;;;;;17.70;100.00;100102.78;5100063;28;20540;-50
2023/07/24 05:11:19;;;;;;;12.68;5.20;;;;;;;17.85;100.00;100121.16;5106871;28;20074;-50
2023/07/24 05:13:44;;;;;;;15.90;6.55;;;;;;;17.88;100.00;100112.09;5099272;28;20036;-51
2023/07/24 05:16:10;;;;;;;11.57;5.60;;;;;;;17.82;100.00;100102.75;5099125;28;20044;-50
2023/07/24 05:18:35;;;;;;;9.02;5.43;;;;;;;17.97;100.00;100114.06;5094275;28;20048;-49
2023/07/24 05:21:00;;;;;;;13.32;5.68;;;;;;;17.53;100.00;100032.16;5102129;28;20080;-52
2023/07/24 05:23:26;;;;;;;9.55;5.20;;;;;;;18.04;100.00;100122.47;5115403;28;20115;-47
2023/07/24 05:26:02;;;;;;;10.90;5.25;;;;;;;18.06;100.00;100125.84;5095951;28;20032;-47
2023/07/24 05:28:28;;;;;;;10.10;4.85;;;;;;;17.66;100.00;100054.25;5112702;28;20035;-49
2023/07/24 05:30:54;;;;;;;10.55;5.10;;;;;;;17.96;100.00;100091.91;5107657;28;20042;-49
2023/07/24 05:33:19;;;;;;;16.75;5.40;;;;;;;18.12;100.00;100120.94;5094601;28;20519;-48
2023/07/24 05:35:45;;;;;;;11.40;5.40;;;;;;;18.11;100.00;100119.22;5102643;28;20462;-50
2023/07/24 05:38:10;;;;;;;13.25;5.07;;;;;;;18.14;100.00;100126.13;5094945;28;20555;-51
2023/07/24 05:40:35;;;;;;;12.93;5.43;;;;;;;18.19;100.00;100114.16;5106023;28;20032;-51
2023/07/24 05:43:01;;;;;;;10.63;5.70;;;;;;;18.15;100.00;100110.03;5114455;28;20127;-48
2023/07/24 05:45:27;;;;;;;8.18;4.25;;;;;;;17.94;100.00;100069.88;5106974;28;20161;-50
2023/07/24 05:47:52;;;;;;;10.93;5.78;;;;;;;17.92;100.00;100063.00;5093737;28;20513;-53
2023/07/24 05:50:18;;;;;;;12.20;6.35;;;;;;;18.15;100.00;100098.53;5097070;28;20123;-48
2023/07/24 05:52:43;;;;;;;8.63;4.68;;;;;;;18.10;100.00;100087.34;5111845;28;20126;-50
2023/07/24 05:55:09;;;;;;;9.32;4.65;;;;;;;18.21;100.00;100108.72;5081571;28;20067;-51
2023/07/24 05:57:34;;;;;;;12.55;4.78;;;;;;;18.32;100.00;100112.28;5094741;28;20064;-47
2023/07/24 05:59:59;;;;;;;10.10;4.53;;;;;;;18.40;100.00;100119.69;5075214;28;20119;-50
2023/07/24 06:02:25;;;;;;;8.65;4.57;;;;;;;18.57;100.00;100129.94;5092704;28;21066;-52
2023/07/24 06:04:50;;;;;;;9.70;4.55;;;;;;;18.51;100.00;100114.41;5100288;28;20065;-47
2023/07/24 06:07:15;;;;;;;13.85;4.93;;;;;;;18.68;100.00;100129.97;5095582;28;20032;-48
2023/07/24 06:09:41;;;;;;;11.25;4.50;;;;;;;18.72;100.00;100142.09;5093636;28;20040;-48
2023/07/24 06:12:06;;;;;;;9.50;4.63;;;;;;;18.36;100.00;100062.25;5105925;28;20039;-51
2023/07/24 06:14:32;;;;;;;11.15;4.80;;;;;;;18.82;100.00;100139.59;5104592;28;20036;-49
2023/07/24 06:16:57;;;;;;;10.48;4.35;;;;;;;18.89;100.00;100146.97;5111478;28;20403;-48
2023/07/24 06:19:22;;;;;;;10.10;4.55;;;;;;;18.94;100.00;100139.47;5110776;28;20419;-52
2023/07/24 06:21:47;;;;;;;12.43;4.55;;;;;;;18.94;100.00;100149.31;5102374;28;20100;-48
2023/07/24 06:24:13;;;;;;;13.45;4.50;;;;;;;18.54;100.00;100080.38;5108913;28;20523;-48
2023/07/24 06:26:39;;;;;;;9.63;4.68;;;;;;;18.41;100.00;100060.97;5109302;28;20065;-49
2023/07/24 06:29:04;;;;;;;9.80;4.20;;;;;;;18.87;100.00;100132.91;5093518;28;20556;-52
2023/07/24 06:31:29;;;;;;;10.25;4.50;;;;;;;19.03;100.00;100167.25;5101757;28;20054;-50
2023/07/24 06:33:55;;;;;;;9.02;4.20;;;;;;;18.64;100.00;100095.69;5111800;28;20059;-48
2023/07/24 06:36:20;;;;;;;8.05;3.60;;;;;;;19.12;100.00;100166.50;5093488;28;20044;-48
2023/07/24 06:38:47;;;;;;;14.15;4.25;;;;;;;18.78;100.00;100101.63;5108880;28;20047;-49
2023/07/24 06:41:13;;;;;;;10.65;4.68;;;;;;;19.20;100.00;100166.78;5097858;28;20089;-50
2023/07/24 06:43:38;;;;;;;10.43;4.57;;;;;;;19.22;100.00;100164.84;5075223;28;20479;-49
2023/07/24 06:46:04;;;;;;;10.85;4.65;;;;;;;19.14;100.00;100143.25;5083074;28;20097;-51
2023/07/24 06:48:29;;;;;;;8.02;3.67;;;;;;;18.96;100.00;100094.03;5093994;28;20051;-51
2023/07/24 06:50:54;;;;;;;7.18;3.95;;;;;;;19.41;100.00;100158.94;5092699;28;20086;-52
2023/07/24 06:53:20;;;;;;;8.05;3.78;;;;;;;19.57;100.00;100173.59;5096449;28;20074;-51
2023/07/24 06:55:45;;;;;;;9.00;4.43;;;;;;;19.67;100.00;100173.72;5093429;28;20028;-51
2023/07/24 06:58:10;;;;;;;10.40;4.45;;;;;;;19.75;100.00;100170.44;5112312;28;20059;-49
2023/07/24 07:00:36;;;;;;;10.10;3.83;;;;;;;19.82;100.00;100171.66;5106423;28;20094;-54
2023/07/24 07:03:01;;;;;;;14.85;4.45;;;;;;;20.03;100.00;100172.53;5100632;28;20107;-52
2023/07/24 07:05:26;;;;;;;10.55;4.35;;;;;;;20.10;100.00;100165.75;5088598;28;20035;-54
2023/07/24 07:07:52;;;;;;;11.23;5.28;;;;;;;20.06;100.00;100140.22;5103365;28;20035;-51
2023/07/24 07:10:17;;;;;;;12.07;4.13;;;;;;;20.10;100.00;100171.94;5093098;28;20635;-50
2023/07/24 07:12:42;;;;;;;6.07;3.08;;;;;;;20.29;100.00;100173.94;5103057;28;20046;-49
2023/07/24 07:15:08;;;;;;;8.82;3.97;;;;;;;20.26;100.00;100173.38;5113150;28;20046;-49
2023/07/24 07:17:33;;;;;;;7.28;3.33;;;;;;;20.20;100.00;100161.31;5098884;28;20040;-47
2023/07/24 07:19:59;;;;;;;8.55;3.55;;;;;;;20.33;100.00;100161.19;5088125;28;20294;-50
2023/07/24 07:22:24;;;;;;;11.85;4.25;;;;;;;20.03;100.00;100095.91;5096994;28;20380;-49
2023/07/24 07:24:49;;;;;;;8.15;3.38;;;;;;;20.26;100.00;100099.38;5103368;28;20051;-56
2023/07/24 07:27:17;;;;;;;10.73;3.45;;;;;;;20.51;100.00;100085.66;5101924;28;20113;-50
2023/07/24 07:29:43;;;;;;;9.75;3.78;;;;;;;21.01;100.00;100150.00;5101018;28;20027;-49
2023/07/24 07:32:09;;;;;;;7.22;3.53;;;;;;;20.59;100.00;100093.00;5112730;28;20478;-49
2023/07/24 07:34:35;;;;;;;7.13;3.35;;;;;;;21.11;100.00;100159.78;5113157;28;20048;-51
2023/07/24 07:37:01;;;;;;;7.10;3.63;;;;;;;20.83;100.00;100074.00;5112944;28;20375;-50
2023/07/24 07:39:26;;;;;;;7.00;3.47;;;;;;;21.48;100.00;100172.66;5112720;28;20076;-46
2023/07/24 07:41:52;;;;;;;6.10;3.10;;;;;;;21.20;100.00;100099.25;5093155;28;20032;-54
2023/07/24 07:44:17;;;;;;;8.18;3.70;;;;;;;21.49;100.00;100147.56;5110591;28;20039;-49
2023/07/24 07:46:43;;;;;;;7.25;3.63;;;;;;;21.29;100.00;100117.19;5101857;28;20040;-47
2023/07/24 07:49:08;;;;;;;6.05;3.08;;;;;;;21.31;100.00;100137.50;5104375;28;20063;-51
2023/07/24 07:51:33;;;;;;;7.00;3.60;;;;;;;21.31;100.00;100145.53;5110696;28;20059;-49
2023/07/24 07:53:59;;;;;;;7.10;3.58;;;;;;;21.73;100.00;100150.75;5110758;28;20475;-51
2023/07/24 07:56:24;;;;;;;7.60;3.03;;;;;;;22.11;100.00;100164.25;5106640;28;20446;-51
2023/07/24 07:58:49;;;;;;;5.72;2.80;;;;;;;22.18;100.00;100172.59;5088386;28;20149;-50
2023/07/24 08:01:15;;;;;;;10.27;3.72;;;;;;;21.55;100.00;100099.66;5100578;28;20028;-49
2023/07/24 08:03:40;;;;;;;8.88;3.92;;;;;;;21.27;100.00;100109.31;5110679;28;20036;-48
2023/07/24 08:06:06;;;;;;;9.60;4.07;;;;;;;21.40;100.00;100154.56;5095296;28;20429;-52
2023/07/24 08:08:31;;;;;;;5.55;3.30;;;;;;;21.23;100.00;100176.63;5096529;28;20127;-49
2023/07/24 08:10:57;;;;;;;8.50;3.10;;;;;;;21.01;100.00;100166.06;5093902;28;20166;-50
2023/07/24 08:13:22;;;;;;;8.40;3.65;;;;;;;20.42;100.00;100089.09;5095668;28;20167;-52
2023/07/24 08:15:48;;;;;;;5.10;3.20;;;;;;;20.19;100.00;100079.47;5100782;28;20039;-53
2023/07/24 08:18:13;;;;;;;8.32;4.25;;;;;;;20.12;100.00;100084.47;5107612;28;20409;-51
2023/07/24 08:20:40;;;;;;;9.15;3.83;;;;;;;20.61;100.00;100149.84;5101918;28;20024;-53
2023/07/24 08:23:05;;;;;;;5.22;3.45;;;;;;;20.97;100.00;100151.22;5096384;28;20036;-55
2023/07/24 08:25:30;;;;;;;11.40;4.20;;;;;;;21.38;100.00;100153.00;5112318;28;20044;-56
2023/07/24 08:27:56;;;;;;;6.57;3.50;;;;;;;21.24;100.00;100120.28;5112105;28;20047;-51
2023/07/24 08:30:21;;;;;;;6.55;3.72;;;;;;;22.03;100.00;100157.91;5094157;28;20031;-51
2023/07/24 08:32:46;;;;;;;5.53;3.00;;;;;;;23.09;100.00;100167.59;5092649;28;20089;-50
2023/07/24 08:35:12;;;;;;;6.60;3.20;;;;;;;24.15;100.00;100199.41;5112189;28;20031;-50
2023/07/24 08:37:37;;;;;;;6.68;2.95;;;;;;;25.05;100.00;100186.63;5101666;28;20039;-50
2023/07/24 08:40:03;;;;;;;6.65;2.83;;;;;;;24.87;100.00;100081.69;5114575;28;20097;-50
2023/07/24 08:42:29;;;;;;;3.78;2.78;;;;;;;25.67;100.00;100137.00;5109172;28;20131;-50
2023/07/24 08:44:56;;;;;;;6.25;3.70;;;;;;;25.94;100.00;100176.34;5097648;28;20027;-51
2023/07/24 08:47:21;;;;;;;5.63;3.15;;;;;;;25.67;100.00;100183.66;5115736;28;20024;-51
2023/07/24 08:49:47;;;;;;;7.30;3.45;;;;;;;24.78;100.00;100138.28;5115883;28;20039;-53
2023/07/24 08:52:13;;;;;;;8.35;3.05;;;;;;;23.94;100.00;100116.31;5116109;28;20078;-49
2023/07/24 08:54:38;;;;;;;5.55;3.05;;;;;;;23.45;100.00;100131.88;5100162;28;20032;-54
2023/07/24 08:57:07;;;;;;;7.47;3.17;;;;;;;22.32;100.00;100056.88;5077027;28;20048;-54
2023/07/24 08:59:33;;;;;;;6.93;3.47;;;;;;;22.73;100.00;100163.03;5076322;28;20036;-51
2023/07/24 09:01:59;;;;;;;4.63;3.45;;;;;;;22.69;100.00;100106.09;5095638;28;20024;-51
2023/07/24 09:04:25;;;;;;;8.77;3.70;;;;;;;23.88;100.00;100162.59;5077314;28;20032;-48
2023/07/24 09:06:50;;;;;;;9.23;3.80;;;;;;;24.29;100.00;100121.72;5077230;28;20525;-54
2023/07/24 09:09:16;;;;;;;4.95;3.17;;;;;;;24.44;100.00;100112.13;5095274;28;20032;-48
2023/07/24 09:11:53;;;;;;;6.15;3.15;;;;;;;24.27;100.00;100109.44;5089938;28;20028;-54
2023/07/24 09:14:27;;;;;;;3.53;2.72;;;;;;;23.60;100.00;100112.56;5078495;28;20042;-50
2023/07/24 09:17:09;;;;;;;4.82;3.30;;;;;;;23.18;100.00;100082.63;5088021;28;20036;-50
2023/07/24 09:19:35;;;;;;;4.55;2.95;;;;;;;24.26;100.00;100146.25;5091716;28;20546;-49
2023/07/24 09:22:15;;;;;;;3.22;2.55;;;;;;;25.08;100.00;100162.94;5095018;28;20111;-49
2023/07/24 09:24:57;;;;;;;5.13;3.00;;;;;;;25.66;100.00;100127.22;5100724;28;20031;-52
2023/07/24 09:27:27;;;;;;;5.22;2.67;;;;;;;26.38;100.00;100106.84;5082214;28;20081;-52
2023/07/24 09:29:53;;;;;;;5.63;2.67;;;;;;;26.56;100.00;100105.63;5102714;28;20035;-50
2023/07/24 09:32:20;;;;;;;4.35;2.63;;;;;;;26.83;100.00;100117.97;5095477;28;20035;-50
2023/07/24 09:34:46;;;;;;;7.15;3.08;;;;;;;27.58;100.00;100176.09;5115095;28;20063;-52
2023/07/24 09:37:11;;;;;;;8.02;3.30;;;;;;;27.31;100.00;100120.56;5108087;28;20070;-53
2023/07/24 09:39:36;;;;;;;4.43;2.92;;;;;;;27.30;100.00;100169.34;5096351;28;20551;-56
2023/07/24 09:42:03;;;;;;;4.68;2.92;;;;;;;27.11;100.00;100169.75;5099344;28;20032;-50
2023/07/24 09:44:30;;;;;;;4.18;2.63;;;;;;;26.38;100.00;100168.91;5104631;28;20036;-52
2023/07/24 09:46:56;;;;;;;5.20;3.00;;;;;;;25.13;100.00;100114.81;5076429;28;20024;-51
2023/07/24 09:49:21;;;;;;;4.50;3.03;;;;;;;24.68;100.00;100167.13;5076389;28;20047;-54
2023/07/24 09:51:50;;;;;;;5.30;2.47;;;;;;;23.73;100.00;100127.34;5101518;28;20394;-49
2023/07/24 09:54:29;;;;;;;4.28;2.50;;;;;;;23.44;100.00;100170.47;5096625;28;20035;-50
2023/07/24 09:56:55;;;;;;;4.72;3.10;;;;;;;23.00;100.00;100165.78;5114605;28;20056;-58
2023/07/24 09:59:20;;;;;;;6.20;3.00;;;;;;;22.52;100.00;100117.53;5080454;28;20032;-54
2023/07/24 10:01:47;;;;;;;3.42;2.70;;;;;;;22.19;100.00;100099.22;5092953;28;20028;-50
2023/07/24 10:04:14;;;;;;;3.03;2.72;;;;;;;22.18;100.00;100082.28;5093983;28;20020;-50
2023/07/24 10:06:40;;;;;;;4.53;3.05;;;;;;;22.34;100.00;100135.34;5095250;28;20511;-56
2023/07/24 10:09:06;;;;;;;4.85;3.22;;;;;;;22.26;100.00;100133.38;5084743;28;20123;-54
2023/07/24 10:11:31;;;;;;;4.65;3.28;;;;;;;21.96;100.00;100077.19;5076200;28;20171;-56
2023/07/24 10:13:57;;;;;;;3.97;2.90;;;;;;;22.00;100.00;100075.94;5094735;28;20623;-52
2023/07/24 10:16:22;;;;;;;4.65;3.15;;;;;;;22.66;100.00;100078.72;5107907;28;20043;-54
2023/07/24 10:18:48;;;;;;;5.15;3.15;;;;;;;24.12;100.00;100162.91;5108382;28;20086;-54
2023/07/24 10:21:14;;;;;;;6.40;3.33;;;;;;;24.46;100.00;100149.66;5099723;28;20040;-49
2023/07/24 10:23:44;;;;;;;6.97;2.78;;;;;;;24.18;100.00;100078.94;5104351;28;20112;-50
2023/07/24 10:26:10;;;;;;;5.13;3.03;;;;;;;25.06;100.00;100119.16;5102712;28;20502;-51
2023/07/24 10:28:38;;;;;;;4.60;3.05;;;;;;;25.92;100.00;100164.91;5082185;28;20326;-52
2023/07/24 10:31:25;;;;;;;6.72;2.92;;;;;;;26.12;100.00;100107.75;5097404;28;20110;-50
2023/07/24 10:33:51;;;;;;;5.75;3.47;;;;;;;26.35;100.00;100090.97;5106317;28;20035;-51
2023/07/24 10:36:19;;;;;;;5.28;3.17;;;;;;;27.61;100.00;100174.88;5098433;28;20533;-49
2023/07/24 10:38:45;;;;;;;7.72;3.25;;;;;;;28.19;100.00;100126.59;5083516;28;20043;-51
2023/07/24 10:41:11;;;;;;;4.13;2.70;;;;;;;28.52;100.00;100101.97;5103004;28;20039;-49
2023/07/24 10:43:44;;;;;;;4.80;2.92;;;;;;;29.21;100.00;100147.72;5108764;28;20032;-53
2023/07/24 10:46:10;;;;;;;5.43;2.83;;;;;;;29.39;100.00;100120.28;5107613;28;20161;-52
2023/07/24 10:48:35;;;;;;;4.03;3.05;;;;;;;29.42;100.00;100179.53;5101732;28;20149;-49
2023/07/24 10:51:07;;;;;;;3.70;3.03;;;;;;;28.97;100.00;100119.00;5110984;28;20428;-50
2023/07/24 10:53:35;;;;;;;2.85;2.33;;;;;;;29.14;100.00;100129.66;5106434;28;20035;-55
2023/07/24 10:56:00;;;;;;;4.65;3.10;;;;;;;29.51;100.00;100189.25;5092614;28;20031;-50
2023/07/24 10:58:26;;;;;;;2.80;2.55;;;;;;;29.40;100.00;100121.94;5107440;28;20050;-46
2023/07/24 11:00:52;;;;;;;6.40;3.00;;;;;;;30.24;100.00;100182.91;5103167;28;20478;-48
2023/07/24 11:03:17;;;;;;;6.32;2.97;;;;;;;29.35;100.00;100182.16;5099485;28;20036;-48
2023/07/24 11:05:44;;;;;;;3.53;3.05;;;;;;;27.78;100.00;100119.72;5099833;28;20028;-49
2023/07/24 11:08:17;;;;;;;5.75;3.42;;;;;;;27.16;100.00;100159.25;5108250;28;20043;-47
2023/07/24 11:10:49;;;;;;;5.38;3.30;;;;;;;25.60;100.00;100122.47;5082984;28;20102;-51